createdAt,value
2022-08-22T00:06:57.808Z,144
2022-08-22T00:26:57.837Z,144
2022-08-22T00:46:57.841Z,143
2022-08-22T01:06:57.974Z,142
2022-08-22T01:26:57.890Z,140
2022-08-22T01:46:58.011Z,144
2022-08-22T02:06:58.034Z,144
2022-08-22T02:26:58.058Z,143
2022-08-22T02:46:58.090Z,145
2022-08-22T03:06:57.992Z,146
2022-08-22T03:26:58.098Z,146
2022-08-22T03:46:58.145Z,145
2022-08-22T04:06:58.137Z,141
2022-08-22T04:26:58.165Z,147
2022-08-22T04:46:58.110Z,151
2022-08-22T05:06:58.126Z,149
2022-08-22T05:26:58.154Z,152
2022-08-22T05:46:58.262Z,153
2022-08-22T06:06:58.404Z,153
2022-08-22T06:26:58.214Z,155
2022-08-22T06:46:58.232Z,159
2022-08-22T07:06:58.269Z,160
2022-08-22T07:46:58.273Z,161
2022-08-22T08:06:58.324Z,168
2022-08-22T08:26:58.364Z,167
2022-08-22T08:46:58.317Z,163
2022-08-22T09:07:01.116Z,163
2022-08-22T09:26:58.558Z,161
2022-08-22T09:46:58.393Z,163
2022-08-22T10:06:58.431Z,160
2022-08-22T10:26:58.425Z,166
2022-08-22T10:46:58.460Z,169
2022-08-22T11:06:58.584Z,155
2022-08-22T11:26:58.465Z,154
2022-08-22T11:46:58.347Z,167
2022-08-22T12:06:58.366Z,153
2022-08-22T12:26:58.412Z,161
2022-08-22T12:46:58.499Z,162
2022-08-22T13:06:58.529Z,151
2022-08-22T13:26:58.520Z,156
2022-08-22T13:47:13.458Z,149
2022-08-22T14:06:58.571Z,155
2022-08-22T14:26:58.568Z,150
2022-08-22T14:46:58.592Z,154
2022-08-22T15:06:58.655Z,156
2022-08-22T15:26:58.595Z,164
2022-08-22T15:46:58.617Z,158
2022-08-22T16:06:58.645Z,151
2022-08-22T16:26:58.545Z,151
2022-08-22T16:46:58.665Z,147
2022-08-22T17:06:58.674Z,150
2022-08-22T17:26:58.793Z,154
2022-08-22T17:46:58.708Z,151
2022-08-22T18:06:58.849Z,142
2022-08-22T18:26:58.713Z,142
2022-08-22T18:46:58.740Z,141
2022-08-22T19:06:58.732Z,139
2022-08-22T19:26:58.764Z,142
2022-08-22T19:46:58.820Z,146
2022-08-22T20:27:13.123Z,144
2022-08-22T20:46:58.825Z,146
2022-08-22T21:06:58.851Z,146
2022-08-22T21:26:58.877Z,145
2022-08-22T21:46:58.959Z,146
2022-08-22T22:06:58.801Z,145
2022-08-22T22:26:58.927Z,143
2022-08-22T22:46:58.933Z,140
2022-08-22T23:06:58.964Z,143
2022-08-22T23:26:59.248Z,143
2022-08-22T23:46:58.993Z,145
